^^
Meteo Knjazevac Station Historical Data
Daily Summary for February 22, 2021 Units:  Metric    English   Both
Daily Weekly Monthly Yearly Custom
  High: Low: Average:
Temperature: 20.3 °C 17.9 °C 18.9 °C
Dew Point: 19.3 °C 17.4 °C 18.2 °C
Humidity: 98% 93% 96%
Wind Speed: 3.2km/h 0km/h 0.8km/h
Wind Gust: 4.8km/h - -
Wind- - West
Pressure: 1015.1 hPa 1014.8 hPa -
Precipitation: 0 mm    
Historical Graphs
 
 
Tabular Data for February 22, 2021
Time Temperature Dew Point Pressure Wind Wind Speed Wind Gust Humidity Rainfall Rate (Hourly) solar Conditions
00:00 20.3 °C 19.3 °C 1014.8 hPa Calm   3.2 km/h 94% 0 mm 0 W/m2
00:10 20.3 °C 19.1 °C 1014.8 hPa NNW 1.6 km/h 3.2 km/h 93% 0 mm 0 W/m2
00:20 20 °C 18.8 °C 1015.1 hPa Calm   3.2 km/h 93% 0 mm 0 W/m2
00:30 19.9 °C 18.7 °C 1015.1 hPa WSW 1.6 km/h 3.2 km/h 93% 0 mm 0 W/m2
00:40 19.8 °C 18.8 °C 1015.1 hPa Calm   3.2 km/h 94% 0 mm 0 W/m2
00:50 19.7 °C 18.7 °C 1015.1 hPa Calm     94% 0 mm 0 W/m2
01:00 19.6 °C 18.6 °C 1015.1 hPa Calm   1.6 km/h 94% 0 mm 0 W/m2
01:10 19.5 °C 18.5 °C 1015.1 hPa Calm     94% 0 mm 0 W/m2
01:20 19.4 °C 18.6 °C 1014.8 hPa Calm   3.2 km/h 95% 0 mm 0 W/m2
01:30 19.1 °C 18.3 °C 1014.8 hPa WSW 1.6 km/h 3.2 km/h 95% 0 mm 0 W/m2
01:40 19 °C 18.2 °C 1014.8 hPa Calm   3.2 km/h 95% 0 mm 0 W/m2
01:50 18.8 °C 18 °C 1015.1 hPa West 1.6 km/h 3.2 km/h 95% 0 mm 0 W/m2
02:00 18.7 °C 17.9 °C 1014.8 hPa Calm   1.6 km/h 95% 0 mm 0 W/m2
02:10 18.6 °C 17.9 °C 1014.8 hPa WSW 1.6 km/h 3.2 km/h 96% 0 mm 0 W/m2
02:20 18.5 °C 17.8 °C 1014.8 hPa Calm   3.2 km/h 96% 0 mm 0 W/m2
02:30 18.4 °C 17.8 °C 1015.1 hPa Calm   1.6 km/h 96% 0 mm 0 W/m2
02:40 18.4 °C 17.8 °C 1015.1 hPa Calm   3.2 km/h 96% 0 mm 0 W/m2
02:50 18.3 °C 18 °C 1014.8 hPa WSW 3.2 km/h 4.8 km/h 98% 0 mm 0 W/m2
03:00 18.3 °C 18 °C 1014.8 hPa North 1.6 km/h 4.8 km/h 98% 0 mm 0 W/m2
03:10 18.2 °C 17.9 °C 1015.1 hPa SSW 1.6 km/h 3.2 km/h 98% 0 mm 0 W/m2
03:20 18.2 °C 17.9 °C 1015.1 hPa Calm   1.6 km/h 98% 0 mm 0 W/m2
03:30 18.2 °C 17.9 °C 1015.1 hPa Calm   3.2 km/h 98% 0 mm 0 W/m2
03:40 18.1 °C 17.4 °C 1015.1 hPa SW 3.2 km/h 3.2 km/h 96% 0 mm 0 W/m2
03:50 17.9 °C 17.6 °C 1015.1 hPa WNW 1.6 km/h 3.2 km/h 98% 0 mm 0 W/m2
Knjazevac, Serbia
Compliments of Weather Underground - 2 mb